sensor_id;sensor_type;location;lat;lon;timestamp;temperature;humidity
14210;DHT22;7188;56.070;12.698;2023-05-14T00:00:16;12.70;99.90
14210;DHT22;7188;56.070;12.698;2023-05-14T00:02:42;12.70;99.90
14210;DHT22;7188;56.070;12.698;2023-05-14T00:05:08;12.70;99.90
14210;DHT22;7188;56.070;12.698;2023-05-14T00:07:34;12.70;99.90
14210;DHT22;7188;56.070;12.698;2023-05-14T00:10:00;12.60;99.90
14210;DHT22;7188;56.070;12.698;2023-05-14T00:12:25;12.60;99.90
14210;DHT22;7188;56.070;12.698;2023-05-14T00:14:52;12.50;99.90
14210;DHT22;7188;56.070;12.698;2023-05-14T00:17:17;12.50;99.90
14210;DHT22;7188;56.070;12.698;2023-05-14T00:19:43;12.50;99.90
14210;DHT22;7188;56.070;12.698;2023-05-14T00:22:09;12.40;99.90
14210;DHT22;7188;56.070;12.698;2023-05-14T00:24:35;12.30;99.90
14210;DHT22;7188;56.070;12.698;2023-05-14T00:27:02;12.20;99.90
14210;DHT22;7188;56.070;12.698;2023-05-14T00:29:28;12.20;99.90
14210;DHT22;7188;56.070;12.698;2023-05-14T00:31:53;12.10;99.90
14210;DHT22;7188;56.070;12.698;2023-05-14T00:34:19;12.10;99.90
14210;DHT22;7188;56.070;12.698;2023-05-14T00:36:45;12.00;99.90
14210;DHT22;7188;56.070;12.698;2023-05-14T00:39:10;12.00;99.90
14210;DHT22;7188;56.070;12.698;2023-05-14T00:41:37;12.00;99.90
14210;DHT22;7188;56.070;12.698;2023-05-14T00:44:02;12.00;99.90
14210;DHT22;7188;56.070;12.698;2023-05-14T00:46:28;12.00;99.90
14210;DHT22;7188;56.070;12.698;2023-05-14T00:48:54;12.00;99.90
14210;DHT22;7188;56.070;12.698;2023-05-14T00:51:20;12.00;99.90
14210;DHT22;7188;56.070;12.698;2023-05-14T00:53:46;12.00;99.90
14210;DHT22;7188;56.070;12.698;2023-05-14T00:56:13;12.00;99.90
14210;DHT22;7188;56.070;12.698;2023-05-14T00:58:39;11.90;99.90
14210;DHT22;7188;56.070;12.698;2023-05-14T01:01:05;11.80;99.90
14210;DHT22;7188;56.070;12.698;2023-05-14T01:03:31;11.80;99.90
14210;DHT22;7188;56.070;12.698;2023-05-14T01:09:24;11.70;99.90
14210;DHT22;7188;56.070;12.698;2023-05-14T01:12:01;11.60;99.90
14210;DHT22;7188;56.070;12.698;2023-05-14T01:14:41;11.50;99.90
14210;DHT22;7188;56.070;12.698;2023-05-14T01:17:10;11.50;99.90
14210;DHT22;7188;56.070;12.698;2023-05-14T01:19:42;11.40;99.90
14210;DHT22;7188;56.070;12.698;2023-05-14T01:22:09;11.40;99.90
14210;DHT22;7188;56.070;12.698;2023-05-14T01:24:35;11.30;99.90
14210;DHT22;7188;56.070;12.698;2023-05-14T01:27:24;11.30;99.90
14210;DHT22;7188;56.070;12.698;2023-05-14T01:30:35;11.30;99.90
14210;DHT22;7188;56.070;12.698;2023-05-14T01:33:07;11.30;99.90
14210;DHT22;7188;56.070;12.698;2023-05-14T01:35:34;11.30;99.90
14210;DHT22;7188;56.070;12.698;2023-05-14T01:38:02;11.30;99.90
14210;DHT22;7188;56.070;12.698;2023-05-14T01:40:30;11.40;99.90
14210;DHT22;7188;56.070;12.698;2023-05-14T01:42:56;11.40;99.90
14210;DHT22;7188;56.070;12.698;2023-05-14T01:45:23;11.50;99.90
14210;DHT22;7188;56.070;12.698;2023-05-14T01:47:49;11.50;99.90
14210;DHT22;7188;56.070;12.698;2023-05-14T01:50:15;11.50;99.90
14210;DHT22;7188;56.070;12.698;2023-05-14T01:52:41;11.60;99.90
14210;DHT22;7188;56.070;12.698;2023-05-14T01:55:07;11.60;99.90
14210;DHT22;7188;56.070;12.698;2023-05-14T01:57:33;11.60;99.90
14210;DHT22;7188;56.070;12.698;2023-05-14T01:59:58;11.70;99.90
14210;DHT22;7188;56.070;12.698;2023-05-14T02:02:24;11.70;99.90
14210;DHT22;7188;56.070;12.698;2023-05-14T02:04:51;11.80;99.90
14210;DHT22;7188;56.070;12.698;2023-05-14T02:07:17;11.90;99.90
14210;DHT22;7188;56.070;12.698;2023-05-14T02:09:42;11.90;99.90
14210;DHT22;7188;56.070;12.698;2023-05-14T02:12:08;11.90;99.90
14210;DHT22;7188;56.070;12.698;2023-05-14T02:14:35;11.90;99.90
14210;DHT22;7188;56.070;12.698;2023-05-14T02:17:01;12.00;99.90
14210;DHT22;7188;56.070;12.698;2023-05-14T02:19:28;12.00;99.90
14210;DHT22;7188;56.070;12.698;2023-05-14T02:21:54;12.00;99.90
14210;DHT22;7188;56.070;12.698;2023-05-14T02:24:19;11.90;99.90
14210;DHT22;7188;56.070;12.698;2023-05-14T02:26:45;11.90;99.90
14210;DHT22;7188;56.070;12.698;2023-05-14T02:29:11;11.80;99.90
14210;DHT22;7188;56.070;12.698;2023-05-14T02:31:37;11.80;99.90
14210;DHT22;7188;56.070;12.698;2023-05-14T02:34:03;11.80;99.90
14210;DHT22;7188;56.070;12.698;2023-05-14T02:36:31;11.80;99.90
14210;DHT22;7188;56.070;12.698;2023-05-14T02:38:57;11.80;99.90
14210;DHT22;7188;56.070;12.698;2023-05-14T02:41:23;11.80;99.90
14210;DHT22;7188;56.070;12.698;2023-05-14T02:43:49;11.80;99.90
14210;DHT22;7188;56.070;12.698;2023-05-14T02:46:14;11.80;99.90
14210;DHT22;7188;56.070;12.698;2023-05-14T02:48:40;11.90;99.90
14210;DHT22;7188;56.070;12.698;2023-05-14T02:51:06;11.90;99.90
14210;DHT22;7188;56.070;12.698;2023-05-14T02:53:32;11.90;99.90
14210;DHT22;7188;56.070;12.698;2023-05-14T02:55:58;12.00;99.90
14210;DHT22;7188;56.070;12.698;2023-05-14T02:58:23;12.00;99.90
14210;DHT22;7188;56.070;12.698;2023-05-14T03:00:49;12.00;99.90
14210;DHT22;7188;56.070;12.698;2023-05-14T03:03:15;12.00;99.90
14210;DHT22;7188;56.070;12.698;2023-05-14T03:05:41;12.00;99.90
14210;DHT22;7188;56.070;12.698;2023-05-14T03:08:07;12.00;99.90
14210;DHT22;7188;56.070;12.698;2023-05-14T03:10:32;12.00;99.90
14210;DHT22;7188;56.070;12.698;2023-05-14T03:12:58;12.00;99.90
14210;DHT22;7188;56.070;12.698;2023-05-14T03:15:24;12.00;99.90
14210;DHT22;7188;56.070;12.698;2023-05-14T03:17:49;12.00;99.90
14210;DHT22;7188;56.070;12.698;2023-05-14T03:20:15;11.90;99.90
14210;DHT22;7188;56.070;12.698;2023-05-14T03:22:40;11.90;99.90
14210;DHT22;7188;56.070;12.698;2023-05-14T03:25:06;11.80;99.90
14210;DHT22;7188;56.070;12.698;2023-05-14T03:27:32;11.80;99.90
14210;DHT22;7188;56.070;12.698;2023-05-14T03:29:59;11.70;99.90
14210;DHT22;7188;56.070;12.698;2023-05-14T03:32:25;11.70;99.90
14210;DHT22;7188;56.070;12.698;2023-05-14T03:34:50;11.70;99.90
14210;DHT22;7188;56.070;12.698;2023-05-14T03:37:16;11.70;99.90
14210;DHT22;7188;56.070;12.698;2023-05-14T03:39:42;11.70;99.90
14210;DHT22;7188;56.070;12.698;2023-05-14T03:42:07;11.70;99.90
14210;DHT22;7188;56.070;12.698;2023-05-14T03:44:33;11.70;99.90
14210;DHT22;7188;56.070;12.698;2023-05-14T03:46:58;11.70;99.90
14210;DHT22;7188;56.070;12.698;2023-05-14T03:49:24;11.70;99.90
14210;DHT22;7188;56.070;12.698;2023-05-14T03:51:50;11.70;99.90
14210;DHT22;7188;56.070;12.698;2023-05-14T03:54:15;11.70;1.00
14210;DHT22;7188;56.070;12.698;2023-05-14T03:56:41;11.70;1.00
14210;DHT22;7188;56.070;12.698;2023-05-14T03:59:06;11.70;1.00
14210;DHT22;7188;56.070;12.698;2023-05-14T04:01:32;11.70;1.00
14210;DHT22;7188;56.070;12.698;2023-05-14T04:03:58;11.70;1.00
14210;DHT22;7188;56.070;12.698;2023-05-14T04:06:23;11.80;1.00
14210;DHT22;7188;56.070;12.698;2023-05-14T04:08:49;11.80;1.00
14210;DHT22;7188;56.070;12.698;2023-05-14T04:11:15;11.80;1.00
14210;DHT22;7188;56.070;12.698;2023-05-14T04:13:40;11.90;1.00
14210;DHT22;7188;56.070;12.698;2023-05-14T04:16:06;11.90;1.00
14210;DHT22;7188;56.070;12.698;2023-05-14T04:18:31;11.90;1.00
14210;DHT22;7188;56.070;12.698;2023-05-14T04:21:00;12.00;1.00
14210;DHT22;7188;56.070;12.698;2023-05-14T04:23:26;12.00;1.00
14210;DHT22;7188;56.070;12.698;2023-05-14T04:25:51;12.10;1.00
14210;DHT22;7188;56.070;12.698;2023-05-14T04:28:17;12.10;1.00
14210;DHT22;7188;56.070;12.698;2023-05-14T04:30:43;12.20;1.00
14210;DHT22;7188;56.070;12.698;2023-05-14T04:33:11;12.20;1.00
14210;DHT22;7188;56.070;12.698;2023-05-14T04:35:37;12.30;1.00
14210;DHT22;7188;56.070;12.698;2023-05-14T04:38:03;12.30;1.00
14210;DHT22;7188;56.070;12.698;2023-05-14T04:40:28;12.40;1.00
14210;DHT22;7188;56.070;12.698;2023-05-14T04:42:55;12.40;1.00
14210;DHT22;7188;56.070;12.698;2023-05-14T04:45:21;12.40;1.00
14210;DHT22;7188;56.070;12.698;2023-05-14T04:47:47;12.50;1.00
14210;DHT22;7188;56.070;12.698;2023-05-14T04:50:12;12.50;1.00
14210;DHT22;7188;56.070;12.698;2023-05-14T04:52:38;12.50;1.00
14210;DHT22;7188;56.070;12.698;2023-05-14T04:55:04;12.50;1.00
14210;DHT22;7188;56.070;12.698;2023-05-14T04:57:30;12.50;1.00
14210;DHT22;7188;56.070;12.698;2023-05-14T04:59:56;12.60;1.00
14210;DHT22;7188;56.070;12.698;2023-05-14T05:02:21;12.60;1.00
14210;DHT22;7188;56.070;12.698;2023-05-14T05:04:47;12.60;1.00
14210;DHT22;7188;56.070;12.698;2023-05-14T05:07:13;12.70;1.00
14210;DHT22;7188;56.070;12.698;2023-05-14T05:09:39;12.70;1.00
14210;DHT22;7188;56.070;12.698;2023-05-14T05:12:05;12.90;1.00
14210;DHT22;7188;56.070;12.698;2023-05-14T05:14:31;12.90;1.00
14210;DHT22;7188;56.070;12.698;2023-05-14T05:16:56;12.90;1.00
14210;DHT22;7188;56.070;12.698;2023-05-14T05:19:22;13.00;1.00
14210;DHT22;7188;56.070;12.698;2023-05-14T05:21:48;13.10;1.00
14210;DHT22;7188;56.070;12.698;2023-05-14T05:24:13;13.30;1.00
14210;DHT22;7188;56.070;12.698;2023-05-14T05:26:39;13.40;1.00
14210;DHT22;7188;56.070;12.698;2023-05-14T05:29:05;13.50;1.00
14210;DHT22;7188;56.070;12.698;2023-05-14T05:31:31;13.60;1.00
14210;DHT22;7188;56.070;12.698;2023-05-14T05:33:58;13.70;1.00
14210;DHT22;7188;56.070;12.698;2023-05-14T05:36:25;13.90;1.00
14210;DHT22;7188;56.070;12.698;2023-05-14T05:38:51;14.00;1.00
14210;DHT22;7188;56.070;12.698;2023-05-14T05:41:16;14.10;99.90
14210;DHT22;7188;56.070;12.698;2023-05-14T05:43:42;14.20;1.00
14210;DHT22;7188;56.070;12.698;2023-05-14T05:46:07;14.20;99.90
14210;DHT22;7188;56.070;12.698;2023-05-14T05:48:33;14.20;99.90
14210;DHT22;7188;56.070;12.698;2023-05-14T05:50:59;14.30;99.90
14210;DHT22;7188;56.070;12.698;2023-05-14T05:53:24;14.40;99.90
14210;DHT22;7188;56.070;12.698;2023-05-14T05:55:50;14.50;99.90
14210;DHT22;7188;56.070;12.698;2023-05-14T05:58:19;14.70;99.90
14210;DHT22;7188;56.070;12.698;2023-05-14T06:00:45;14.70;99.90
14210;DHT22;7188;56.070;12.698;2023-05-14T06:03:12;15.00;99.90
14210;DHT22;7188;56.070;12.698;2023-05-14T06:05:37;15.30;99.90
14210;DHT22;7188;56.070;12.698;2023-05-14T06:08:03;15.60;99.90
14210;DHT22;7188;56.070;12.698;2023-05-14T06:10:29;15.80;99.90
14210;DHT22;7188;56.070;12.698;2023-05-14T06:12:55;16.00;99.90
14210;DHT22;7188;56.070;12.698;2023-05-14T06:15:21;16.20;99.90
14210;DHT22;7188;56.070;12.698;2023-05-14T06:17:49;16.40;99.90
14210;DHT22;7188;56.070;12.698;2023-05-14T06:20:15;16.60;99.90
14210;DHT22;7188;56.070;12.698;2023-05-14T06:22:41;16.80;99.90
14210;DHT22;7188;56.070;12.698;2023-05-14T06:25:07;16.90;99.90
14210;DHT22;7188;56.070;12.698;2023-05-14T06:27:33;16.80;99.90
14210;DHT22;7188;56.070;12.698;2023-05-14T06:29:58;16.90;99.90
14210;DHT22;7188;56.070;12.698;2023-05-14T06:32:24;16.90;99.90
14210;DHT22;7188;56.070;12.698;2023-05-14T06:34:50;17.00;99.90
14210;DHT22;7188;56.070;12.698;2023-05-14T06:37:15;17.00;99.90
14210;DHT22;7188;56.070;12.698;2023-05-14T06:39:41;16.90;99.90
14210;DHT22;7188;56.070;12.698;2023-05-14T06:42:14;17.10;99.90
14210;DHT22;7188;56.070;12.698;2023-05-14T06:44:40;17.20;99.90
14210;DHT22;7188;56.070;12.698;2023-05-14T06:47:06;17.20;99.90
14210;DHT22;7188;56.070;12.698;2023-05-14T06:49:33;17.30;99.90
14210;DHT22;7188;56.070;12.698;2023-05-14T06:52:00;17.50;99.90
14210;DHT22;7188;56.070;12.698;2023-05-14T06:54:25;17.50;99.90
14210;DHT22;7188;56.070;12.698;2023-05-14T06:56:51;17.70;99.90
14210;DHT22;7188;56.070;12.698;2023-05-14T06:59:17;17.80;99.90
14210;DHT22;7188;56.070;12.698;2023-05-14T07:01:43;17.90;99.90
14210;DHT22;7188;56.070;12.698;2023-05-14T07:04:08;18.10;99.90
14210;DHT22;7188;56.070;12.698;2023-05-14T07:06:34;18.30;99.90
14210;DHT22;7188;56.070;12.698;2023-05-14T07:09:00;18.60;99.90
14210;DHT22;7188;56.070;12.698;2023-05-14T07:11:26;18.90;99.90
14210;DHT22;7188;56.070;12.698;2023-05-14T07:13:52;19.10;99.90
14210;DHT22;7188;56.070;12.698;2023-05-14T07:16:18;19.30;99.90
14210;DHT22;7188;56.070;12.698;2023-05-14T07:18:44;19.50;99.90
14210;DHT22;7188;56.070;12.698;2023-05-14T07:21:10;19.50;99.90
14210;DHT22;7188;56.070;12.698;2023-05-14T07:23:36;19.60;99.90
14210;DHT22;7188;56.070;12.698;2023-05-14T07:26:04;19.60;99.90
14210;DHT22;7188;56.070;12.698;2023-05-14T07:28:30;19.80;99.90
14210;DHT22;7188;56.070;12.698;2023-05-14T07:30:56;19.80;99.90
14210;DHT22;7188;56.070;12.698;2023-05-14T07:33:22;19.60;99.90
14210;DHT22;7188;56.070;12.698;2023-05-14T07:35:48;19.60;99.90
14210;DHT22;7188;56.070;12.698;2023-05-14T07:38:14;19.60;99.90
14210;DHT22;7188;56.070;12.698;2023-05-14T07:40:40;19.60;99.90
14210;DHT22;7188;56.070;12.698;2023-05-14T07:43:05;19.60;99.90
14210;DHT22;7188;56.070;12.698;2023-05-14T07:45:31;19.50;99.90
14210;DHT22;7188;56.070;12.698;2023-05-14T07:47:57;19.70;99.90
14210;DHT22;7188;56.070;12.698;2023-05-14T07:50:22;19.90;99.90
14210;DHT22;7188;56.070;12.698;2023-05-14T07:52:48;20.10;99.90
14210;DHT22;7188;56.070;12.698;2023-05-14T07:55:14;20.30;99.90
14210;DHT22;7188;56.070;12.698;2023-05-14T07:57:39;20.60;99.90
14210;DHT22;7188;56.070;12.698;2023-05-14T08:00:05;20.80;99.90
14210;DHT22;7188;56.070;12.698;2023-05-14T08:02:32;20.80;99.90
14210;DHT22;7188;56.070;12.698;2023-05-14T08:04:58;20.90;99.90
14210;DHT22;7188;56.070;12.698;2023-05-14T08:07:23;20.80;99.90
14210;DHT22;7188;56.070;12.698;2023-05-14T08:09:51;20.80;99.90
14210;DHT22;7188;56.070;12.698;2023-05-14T08:12:17;20.60;99.90
14210;DHT22;7188;56.070;12.698;2023-05-14T08:14:43;20.20;99.90
14210;DHT22;7188;56.070;12.698;2023-05-14T08:17:08;20.00;99.90
14210;DHT22;7188;56.070;12.698;2023-05-14T08:19:34;20.00;99.90
14210;DHT22;7188;56.070;12.698;2023-05-14T08:22:00;20.10;99.90
14210;DHT22;7188;56.070;12.698;2023-05-14T08:24:25;20.20;99.90
14210;DHT22;7188;56.070;12.698;2023-05-14T08:26:51;20.10;99.90
14210;DHT22;7188;56.070;12.698;2023-05-14T08:29:17;20.20;99.90
14210;DHT22;7188;56.070;12.698;2023-05-14T08:31:43;20.00;99.90
14210;DHT22;7188;56.070;12.698;2023-05-14T08:34:08;20.20;99.90
14210;DHT22;7188;56.070;12.698;2023-05-14T08:36:34;20.20;99.90
14210;DHT22;7188;56.070;12.698;2023-05-14T08:38:59;20.30;99.90
14210;DHT22;7188;56.070;12.698;2023-05-14T08:41:25;20.30;99.90
14210;DHT22;7188;56.070;12.698;2023-05-14T08:44:20;20.40;99.90
14210;DHT22;7188;56.070;12.698;2023-05-14T08:46:51;20.40;99.90
14210;DHT22;7188;56.070;12.698;2023-05-14T08:49:41;20.50;99.90
14210;DHT22;7188;56.070;12.698;2023-05-14T08:52:08;20.70;99.90
14210;DHT22;7188;56.070;12.698;2023-05-14T08:54:34;20.80;99.90
14210;DHT22;7188;56.070;12.698;2023-05-14T08:57:00;21.00;99.90
14210;DHT22;7188;56.070;12.698;2023-05-14T08:59:27;21.00;99.90
14210;DHT22;7188;56.070;12.698;2023-05-14T09:01:54;21.30;99.90
14210;DHT22;7188;56.070;12.698;2023-05-14T09:04:22;21.40;99.90
14210;DHT22;7188;56.070;12.698;2023-05-14T09:06:50;21.30;99.90
14210;DHT22;7188;56.070;12.698;2023-05-14T09:09:16;21.50;99.90
14210;DHT22;7188;56.070;12.698;2023-05-14T09:11:46;21.50;99.90
14210;DHT22;7188;56.070;12.698;2023-05-14T09:14:12;21.50;99.90
14210;DHT22;7188;56.070;12.698;2023-05-14T09:16:38;21.50;99.90
14210;DHT22;7188;56.070;12.698;2023-05-14T09:19:07;21.40;99.90
14210;DHT22;7188;56.070;12.698;2023-05-14T09:21:33;21.40;99.90
14210;DHT22;7188;56.070;12.698;2023-05-14T09:23:59;21.30;99.90
14210;DHT22;7188;56.070;12.698;2023-05-14T09:26:26;21.10;99.90
14210;DHT22;7188;56.070;12.698;2023-05-14T09:28:56;21.10;99.90
14210;DHT22;7188;56.070;12.698;2023-05-14T09:31:22;21.10;99.90
14210;DHT22;7188;56.070;12.698;2023-05-14T09:33:51;21.20;99.90
14210;DHT22;7188;56.070;12.698;2023-05-14T09:36:17;21.50;99.90
14210;DHT22;7188;56.070;12.698;2023-05-14T09:38:46;21.60;99.90
14210;DHT22;7188;56.070;12.698;2023-05-14T09:41:12;21.80;99.90
14210;DHT22;7188;56.070;12.698;2023-05-14T09:43:38;22.00;99.90
14210;DHT22;7188;56.070;12.698;2023-05-14T09:46:03;22.30;99.90
14210;DHT22;7188;56.070;12.698;2023-05-14T09:48:29;22.60;99.90
14210;DHT22;7188;56.070;12.698;2023-05-14T09:50:55;22.70;99.90
14210;DHT22;7188;56.070;12.698;2023-05-14T09:53:22;22.90;99.90
14210;DHT22;7188;56.070;12.698;2023-05-14T09:55:48;22.90;99.90
14210;DHT22;7188;56.070;12.698;2023-05-14T09:58:13;22.80;99.90
14210;DHT22;7188;56.070;12.698;2023-05-14T10:00:43;22.80;99.90
14210;DHT22;7188;56.070;12.698;2023-05-14T10:03:13;22.90;99.90
14210;DHT22;7188;56.070;12.698;2023-05-14T10:05:42;23.00;99.90
14210;DHT22;7188;56.070;12.698;2023-05-14T10:08:21;23.20;99.90
14210;DHT22;7188;56.070;12.698;2023-05-14T10:10:50;23.40;99.90
14210;DHT22;7188;56.070;12.698;2023-05-14T10:13:19;23.40;99.90
14210;DHT22;7188;56.070;12.698;2023-05-14T10:15:49;23.40;99.90
14210;DHT22;7188;56.070;12.698;2023-05-14T10:18:18;23.60;99.90
14210;DHT22;7188;56.070;12.698;2023-05-14T10:20:59;23.70;99.90
14210;DHT22;7188;56.070;12.698;2023-05-14T10:23:28;23.80;99.90
14210;DHT22;7188;56.070;12.698;2023-05-14T10:25:54;23.90;99.90
14210;DHT22;7188;56.070;12.698;2023-05-14T10:28:20;23.90;99.90
14210;DHT22;7188;56.070;12.698;2023-05-14T10:30:46;24.00;99.90
14210;DHT22;7188;56.070;12.698;2023-05-14T10:33:12;24.10;99.90
14210;DHT22;7188;56.070;12.698;2023-05-14T10:35:59;24.10;99.90
14210;DHT22;7188;56.070;12.698;2023-05-14T10:38:27;24.30;99.90
14210;DHT22;7188;56.070;12.698;2023-05-14T10:41:01;24.20;99.90
14210;DHT22;7188;56.070;12.698;2023-05-14T10:43:29;24.00;99.90
14210;DHT22;7188;56.070;12.698;2023-05-14T10:45:56;23.80;99.90
14210;DHT22;7188;56.070;12.698;2023-05-14T10:48:23;23.70;99.90
14210;DHT22;7188;56.070;12.698;2023-05-14T10:50:52;23.70;99.90
14210;DHT22;7188;56.070;12.698;2023-05-14T10:53:18;23.70;99.90
14210;DHT22;7188;56.070;12.698;2023-05-14T10:55:44;23.60;99.90
14210;DHT22;7188;56.070;12.698;2023-05-14T10:58:10;23.80;99.90
14210;DHT22;7188;56.070;12.698;2023-05-14T11:00:37;23.90;99.90
14210;DHT22;7188;56.070;12.698;2023-05-14T11:03:04;24.00;99.90
14210;DHT22;7188;56.070;12.698;2023-05-14T11:05:30;23.90;99.90
14210;DHT22;7188;56.070;12.698;2023-05-14T11:07:57;24.00;99.90
14210;DHT22;7188;56.070;12.698;2023-05-14T11:10:23;24.00;99.90
14210;DHT22;7188;56.070;12.698;2023-05-14T11:12:55;24.00;99.90
14210;DHT22;7188;56.070;12.698;2023-05-14T11:15:23;23.90;99.90
14210;DHT22;7188;56.070;12.698;2023-05-14T11:17:51;23.90;99.90
14210;DHT22;7188;56.070;12.698;2023-05-14T11:20:18;23.90;99.90
14210;DHT22;7188;56.070;12.698;2023-05-14T11:22:45;23.70;99.90
14210;DHT22;7188;56.070;12.698;2023-05-14T11:25:12;23.60;99.90
14210;DHT22;7188;56.070;12.698;2023-05-14T11:27:43;23.60;99.90
14210;DHT22;7188;56.070;12.698;2023-05-14T11:32:38;23.60;99.90
14210;DHT22;7188;56.070;12.698;2023-05-14T11:35:14;23.50;99.90
14210;DHT22;7188;56.070;12.698;2023-05-14T11:37:41;23.70;99.90
14210;DHT22;7188;56.070;12.698;2023-05-14T11:40:17;23.60;99.90
14210;DHT22;7188;56.070;12.698;2023-05-14T11:42:42;23.70;99.90
14210;DHT22;7188;56.070;12.698;2023-05-14T11:45:13;23.90;99.90
14210;DHT22;7188;56.070;12.698;2023-05-14T11:47:40;24.30;99.90
14210;DHT22;7188;56.070;12.698;2023-05-14T11:50:06;24.60;99.90
14210;DHT22;7188;56.070;12.698;2023-05-14T11:52:37;24.80;99.90
14210;DHT22;7188;56.070;12.698;2023-05-14T11:55:04;25.10;99.90
14210;DHT22;7188;56.070;12.698;2023-05-14T11:57:30;25.10;99.90
14210;DHT22;7188;56.070;12.698;2023-05-14T11:59:55;24.60;99.90
14210;DHT22;7188;56.070;12.698;2023-05-14T12:02:22;23.90;99.90
14210;DHT22;7188;56.070;12.698;2023-05-14T12:04:52;22.50;99.90
14210;DHT22;7188;56.070;12.698;2023-05-14T12:07:18;21.20;99.90
14210;DHT22;7188;56.070;12.698;2023-05-14T12:09:48;20.40;99.90
14210;DHT22;7188;56.070;12.698;2023-05-14T12:12:16;20.20;99.90
14210;DHT22;7188;56.070;12.698;2023-05-14T12:14:42;20.10;99.90
14210;DHT22;7188;56.070;12.698;2023-05-14T12:17:20;19.90;99.90
14210;DHT22;7188;56.070;12.698;2023-05-14T12:19:50;19.70;99.90
14210;DHT22;7188;56.070;12.698;2023-05-14T12:22:19;19.70;99.90
14210;DHT22;7188;56.070;12.698;2023-05-14T12:24:55;20.00;99.90
14210;DHT22;7188;56.070;12.698;2023-05-14T12:27:22;20.50;99.90
14210;DHT22;7188;56.070;12.698;2023-05-14T12:29:58;21.10;99.90
14210;DHT22;7188;56.070;12.698;2023-05-14T12:32:25;21.50;99.90
14210;DHT22;7188;56.070;12.698;2023-05-14T12:34:50;21.90;99.90
14210;DHT22;7188;56.070;12.698;2023-05-14T12:37:16;22.00;99.90
14210;DHT22;7188;56.070;12.698;2023-05-14T12:39:43;22.20;99.90
14210;DHT22;7188;56.070;12.698;2023-05-14T12:42:08;22.50;99.90
14210;DHT22;7188;56.070;12.698;2023-05-14T12:44:34;22.90;99.90
14210;DHT22;7188;56.070;12.698;2023-05-14T12:47:00;23.30;99.90
14210;DHT22;7188;56.070;12.698;2023-05-14T12:49:25;23.60;99.90
14210;DHT22;7188;56.070;12.698;2023-05-14T12:51:51;24.00;99.90
14210;DHT22;7188;56.070;12.698;2023-05-14T12:54:16;23.90;99.90
14210;DHT22;7188;56.070;12.698;2023-05-14T12:56:42;24.30;99.90
14210;DHT22;7188;56.070;12.698;2023-05-14T12:59:08;24.70;99.90
14210;DHT22;7188;56.070;12.698;2023-05-14T13:01:34;25.10;99.90
14210;DHT22;7188;56.070;12.698;2023-05-14T13:03:59;25.20;99.90
14210;DHT22;7188;56.070;12.698;2023-05-14T13:06:25;24.50;99.90
14210;DHT22;7188;56.070;12.698;2023-05-14T13:08:51;24.20;99.90
14210;DHT22;7188;56.070;12.698;2023-05-14T13:11:16;23.90;99.90
14210;DHT22;7188;56.070;12.698;2023-05-14T13:13:42;23.70;99.90
14210;DHT22;7188;56.070;12.698;2023-05-14T13:16:07;23.70;99.90
14210;DHT22;7188;56.070;12.698;2023-05-14T13:18:33;23.80;99.90
14210;DHT22;7188;56.070;12.698;2023-05-14T13:20:59;24.00;99.90
14210;DHT22;7188;56.070;12.698;2023-05-14T13:23:24;24.20;99.90
14210;DHT22;7188;56.070;12.698;2023-05-14T13:25:50;24.50;99.90
14210;DHT22;7188;56.070;12.698;2023-05-14T13:28:16;24.60;99.90
14210;DHT22;7188;56.070;12.698;2023-05-14T13:31:08;24.60;99.90
14210;DHT22;7188;56.070;12.698;2023-05-14T13:33:39;25.00;99.90
14210;DHT22;7188;56.070;12.698;2023-05-14T13:36:05;25.10;99.90
14210;DHT22;7188;56.070;12.698;2023-05-14T13:38:31;25.30;99.90
14210;DHT22;7188;56.070;12.698;2023-05-14T13:40:56;25.50;99.90
14210;DHT22;7188;56.070;12.698;2023-05-14T13:43:32;25.50;99.90
14210;DHT22;7188;56.070;12.698;2023-05-14T13:45:58;25.50;99.90
14210;DHT22;7188;56.070;12.698;2023-05-14T13:48:25;25.50;99.90
14210;DHT22;7188;56.070;12.698;2023-05-14T13:50:52;25.30;99.90
14210;DHT22;7188;56.070;12.698;2023-05-14T13:53:19;25.00;99.90
14210;DHT22;7188;56.070;12.698;2023-05-14T13:55:45;24.90;99.90
14210;DHT22;7188;56.070;12.698;2023-05-14T13:58:11;24.80;99.90
14210;DHT22;7188;56.070;12.698;2023-05-14T14:00:37;24.60;99.90
14210;DHT22;7188;56.070;12.698;2023-05-14T14:03:03;24.50;99.90
14210;DHT22;7188;56.070;12.698;2023-05-14T14:05:28;24.30;99.90
14210;DHT22;7188;56.070;12.698;2023-05-14T14:07:55;24.30;99.90
14210;DHT22;7188;56.070;12.698;2023-05-14T14:10:21;24.20;99.90
14210;DHT22;7188;56.070;12.698;2023-05-14T14:12:47;24.20;99.90
14210;DHT22;7188;56.070;12.698;2023-05-14T14:15:13;24.20;99.90
14210;DHT22;7188;56.070;12.698;2023-05-14T14:17:39;24.30;99.90
14210;DHT22;7188;56.070;12.698;2023-05-14T14:20:07;24.30;99.90
14210;DHT22;7188;56.070;12.698;2023-05-14T14:22:34;24.30;99.90
14210;DHT22;7188;56.070;12.698;2023-05-14T14:24:59;24.30;99.90
14210;DHT22;7188;56.070;12.698;2023-05-14T14:27:26;24.20;99.90
14210;DHT22;7188;56.070;12.698;2023-05-14T14:29:51;24.00;99.90
14210;DHT22;7188;56.070;12.698;2023-05-14T14:32:17;24.10;99.90
14210;DHT22;7188;56.070;12.698;2023-05-14T14:34:43;24.30;99.90
14210;DHT22;7188;56.070;12.698;2023-05-14T14:37:08;24.50;99.90
14210;DHT22;7188;56.070;12.698;2023-05-14T14:39:34;24.70;99.90
14210;DHT22;7188;56.070;12.698;2023-05-14T14:42:00;24.80;99.90
14210;DHT22;7188;56.070;12.698;2023-05-14T14:44:25;24.70;99.90
14210;DHT22;7188;56.070;12.698;2023-05-14T14:46:51;24.80;99.90
14210;DHT22;7188;56.070;12.698;2023-05-14T14:49:17;24.70;99.90
14210;DHT22;7188;56.070;12.698;2023-05-14T14:51:42;24.60;99.90
14210;DHT22;7188;56.070;12.698;2023-05-14T14:54:08;24.60;99.90
14210;DHT22;7188;56.070;12.698;2023-05-14T14:56:33;24.60;99.90
14210;DHT22;7188;56.070;12.698;2023-05-14T14:59:00;24.60;99.90
14210;DHT22;7188;56.070;12.698;2023-05-14T15:01:25;24.70;99.90
14210;DHT22;7188;56.070;12.698;2023-05-14T15:03:51;24.70;99.90
14210;DHT22;7188;56.070;12.698;2023-05-14T15:06:17;24.60;99.90
14210;DHT22;7188;56.070;12.698;2023-05-14T15:08:42;24.60;99.90
14210;DHT22;7188;56.070;12.698;2023-05-14T15:11:08;24.60;99.90
14210;DHT22;7188;56.070;12.698;2023-05-14T15:13:34;24.60;99.90
14210;DHT22;7188;56.070;12.698;2023-05-14T15:15:59;24.60;99.90
14210;DHT22;7188;56.070;12.698;2023-05-14T15:18:25;24.50;99.90
14210;DHT22;7188;56.070;12.698;2023-05-14T15:20:51;24.60;99.90
14210;DHT22;7188;56.070;12.698;2023-05-14T15:23:17;24.40;99.90
14210;DHT22;7188;56.070;12.698;2023-05-14T15:25:43;24.40;99.90
14210;DHT22;7188;56.070;12.698;2023-05-14T15:28:08;24.40;99.90
14210;DHT22;7188;56.070;12.698;2023-05-14T15:30:35;24.40;99.90
14210;DHT22;7188;56.070;12.698;2023-05-14T15:33:01;24.30;99.90
14210;DHT22;7188;56.070;12.698;2023-05-14T15:35:27;24.40;99.90